Ana Sayfa
METAR-TAF:

METAR-TAF

Havaalanları :

Del Rio International Airport

Del Rio, Teksas, Amerika Birleşik Devletleri

Enlem: 29-22-29N, Boylam: 100-55-25W, yükseklik: 304 m

Güncel hava durumu gözlemi

Rapor saat 08:53 UTC de 52 dakika önce yapıldı.
Sakin rüzgar
Sıcaklık 8°C
Nem 61%
Basınç 1010 hPa
Görüş mesafesi: 16.1 km
Açık gökyüzü

METAR: KDRT 250853Z AUTO 00000KT 10SM CLR 08/01 A2982 RMK AO2 SLP086 T00780006 57004

Saat: 03:45 (09:45 UTC)

Tahmin

Rapor saat 05:34 UTC de 4 saat ve 11 dakika önce yapıldı.
Ayın 25'si saat 06 UTC'den ayın 26'si saat 06 UTC'ye kadar geçerli Tahmin
Rüzgar değişken yönden 4 kt
Görüş mesafesi: 10 km
Açık gökyüzü
Ayın 25'si saat 1100 UTC'den
Rüzgar kuzey/kuzeybatıdan 12 kt ve 22 kt'a kadar ani rüzgarlar
Görüş mesafesi: 10 km
Açık gökyüzü

TAF: KDRT 250534Z 2506/2606 VRB04KT P6SM SKC FM251100 33012G22KT P6SM SKC

4.000'den fazla havaalanı için hava durumu gözlemleri ve tahminleri (METAR ve TAF raporları).

Kullanılabilir istasyonlar harita üzerinde sarı ve kırmızı noktalarla gösterilir.

İstasyonun adını görmek için fareyi noktanın üzerinde gezdirin.

Sonrasında hava gözlem ve tahminlerini görmek için tıklayın.

Haritayı değiştirmek için: yaklaştırmak için siyah artı işaretli yeşil düğmeye ve uzaklaştırmak için de eksi işaretli düğmeye hızla tıklayın; bitişik haritalar için yeşil okları kullanın.


METAR-TAF: